createdAt,value
2023-09-11T00:00:17.581Z,8.98
2023-09-11T00:02:48.155Z,8.87
2023-09-11T00:05:18.228Z,8.90
2023-09-11T00:07:46.709Z,8.83
2023-09-11T00:10:17.573Z,8.86
2023-09-11T00:12:49.207Z,8.74
2023-09-11T00:15:18.322Z,8.72
2023-09-11T00:17:49.305Z,8.71
2023-09-11T00:20:26.941Z,8.74
2023-09-11T00:22:57.243Z,8.84
2023-09-11T00:25:29.888Z,8.84
2023-09-11T00:27:58.508Z,8.80
2023-09-11T00:30:27.243Z,8.80
2023-09-11T00:32:57.473Z,8.83
2023-09-11T00:35:26.304Z,8.81
2023-09-11T00:37:55.158Z,8.90
2023-09-11T00:40:24.036Z,8.82
2023-09-11T00:42:52.829Z,8.76
2023-09-11T00:45:21.621Z,8.79
2023-09-11T00:47:50.328Z,8.79
2023-09-11T00:50:20.567Z,8.73
2023-09-11T00:52:49.600Z,8.74
2023-09-11T00:55:20.552Z,8.73
2023-09-11T00:57:50.508Z,8.69
2023-09-11T01:00:19.207Z,8.64
2023-09-11T01:02:48.541Z,8.67
2023-09-11T01:05:17.248Z,8.68
2023-09-11T01:07:47.539Z,8.66
2023-09-11T01:10:16.075Z,8.58
2023-09-11T01:12:44.910Z,8.56
2023-09-11T01:15:13.538Z,8.58
2023-09-11T01:17:47.616Z,8.50
2023-09-11T01:20:42.740Z,8.50
2023-09-11T01:23:34.997Z,8.53
2023-09-11T01:26:17.251Z,8.43
2023-09-11T01:29:08.379Z,8.54
2023-09-11T01:31:38.990Z,8.55
2023-09-11T01:34:08.282Z,8.52
2023-09-11T01:36:36.845Z,8.48
2023-09-11T01:39:06.329Z,8.44
2023-09-11T01:41:36.791Z,8.43
2023-09-11T01:44:14.928Z,8.43
2023-09-11T01:46:45.472Z,8.46
2023-09-11T01:49:16.177Z,8.45
2023-09-11T01:51:46.978Z,8.44
2023-09-11T01:54:15.780Z,8.39
2023-09-11T01:56:44.462Z,8.41
2023-09-11T01:59:15.467Z,8.39
2023-09-11T02:01:45.776Z,8.35
2023-09-11T02:04:14.569Z,8.36
2023-09-11T02:06:44.585Z,8.33
2023-09-11T02:09:13.449Z,8.21
2023-09-11T02:11:42.117Z,8.25
2023-09-11T02:14:12.170Z,8.29
2023-09-11T02:16:42.767Z,8.27
2023-09-11T02:19:11.382Z,8.25
2023-09-11T02:21:44.188Z,8.26
2023-09-11T02:24:13.270Z,8.26
2023-09-11T02:26:41.889Z,8.19
2023-09-11T02:29:10.820Z,8.26
2023-09-11T02:31:39.735Z,8.21
2023-09-11T02:34:09.877Z,8.14
2023-09-11T02:36:38.546Z,8.17
2023-09-11T02:39:07.418Z,8.10
2023-09-11T02:41:36.066Z,8.10
2023-09-11T02:44:04.787Z,8.13
2023-09-11T02:46:33.244Z,8.09
2023-09-11T02:49:02.485Z,8.06
2023-09-11T02:51:32.824Z,8.07
2023-09-11T02:54:02.182Z,8.05
2023-09-11T02:56:30.809Z,8.09
2023-09-11T02:59:01.492Z,8.05
2023-09-11T03:01:30.309Z,8.09
2023-09-11T03:03:59.390Z,8.11
2023-09-11T03:06:28.010Z,8.04
2023-09-11T03:08:58.995Z,8.03
2023-09-11T03:11:27.871Z,8.04
2023-09-11T03:13:56.553Z,8.03
2023-09-11T03:16:25.676Z,8.07
2023-09-11T03:18:58.102Z,8.04
2023-09-11T03:21:27.036Z,8.11
2023-09-11T03:24:00.248Z,8.22
2023-09-11T03:26:29.370Z,8.25
2023-09-11T03:28:58.403Z,8.26
2023-09-11T03:31:31.083Z,8.34
2023-09-11T03:34:01.064Z,8.38
2023-09-11T03:36:30.110Z,8.36
2023-09-11T03:39:00.403Z,8.41
2023-09-11T03:41:29.162Z,8.35
2023-09-11T03:43:58.014Z,8.47
2023-09-11T03:46:26.724Z,8.51
2023-09-11T03:48:56.235Z,8.55
2023-09-11T03:51:25.525Z,8.54
2023-09-11T03:53:55.575Z,8.56
2023-09-11T03:56:29.626Z,8.58
2023-09-11T03:58:58.627Z,8.64
2023-09-11T04:01:27.231Z,8.60
2023-09-11T04:03:56.208Z,8.63
2023-09-11T04:06:25.661Z,8.57
2023-09-11T04:08:54.298Z,8.68
2023-09-11T04:11:24.573Z,8.64
2023-09-11T04:13:54.792Z,8.71
2023-09-11T04:16:23.709Z,8.81
2023-09-11T04:18:52.606Z,8.80
2023-09-11T04:21:21.915Z,8.84
2023-09-11T04:23:53.975Z,8.99
2023-09-11T04:26:23.610Z,9.11
2023-09-11T04:28:52.242Z,9.15
2023-09-11T04:31:22.583Z,9.30
2023-09-11T04:33:51.187Z,9.41
2023-09-11T04:36:20.111Z,9.54
2023-09-11T04:38:48.733Z,9.67
2023-09-11T04:41:17.665Z,9.82
2023-09-11T04:43:47.506Z,9.88
2023-09-11T04:46:17.678Z,10.01
2023-09-11T04:48:48.148Z,10.04
2023-09-11T04:51:17.321Z,10.05
2023-09-11T04:53:45.844Z,9.89
2023-09-11T04:56:14.833Z,10.00
2023-09-11T04:58:43.673Z,10.06
2023-09-11T05:01:12.727Z,9.99
2023-09-11T05:03:43.585Z,10.06
2023-09-11T05:06:13.680Z,10.06
2023-09-11T05:09:02.359Z,10.16
2023-09-11T05:11:31.352Z,10.31
2023-09-11T05:14:00.587Z,10.40
2023-09-11T05:16:29.116Z,10.46
2023-09-11T05:18:57.706Z,10.51
2023-09-11T05:21:28.001Z,10.64
2023-09-11T05:23:56.573Z,10.61
2023-09-11T05:26:25.401Z,10.70
2023-09-11T05:28:54.103Z,10.81
2023-09-11T05:31:22.752Z,10.90
2023-09-11T05:33:51.423Z,11.03
2023-09-11T05:36:19.984Z,11.14
2023-09-11T05:38:50.624Z,11.19
2023-09-11T05:41:22.711Z,11.22
2023-09-11T05:43:51.389Z,11.30
2023-09-11T05:46:20.004Z,11.36
2023-09-11T05:48:48.864Z,11.47
2023-09-11T05:51:17.604Z,11.52
2023-09-11T05:53:46.290Z,11.61
2023-09-11T05:56:16.504Z,11.64
2023-09-11T05:58:45.303Z,11.75
2023-09-11T06:01:15.138Z,11.84
2023-09-11T06:03:44.880Z,11.94
2023-09-11T06:06:14.129Z,12.01
2023-09-11T06:08:43.615Z,12.02
2023-09-11T06:11:12.392Z,12.11
2023-09-11T06:13:43.177Z,12.19
2023-09-11T06:16:13.568Z,12.26
2023-09-11T06:18:42.660Z,12.45
2023-09-11T06:21:11.559Z,12.58
2023-09-11T06:23:42.246Z,12.57
2023-09-11T06:26:11.441Z,12.71
2023-09-11T06:28:40.278Z,12.76
2023-09-11T06:31:10.790Z,12.79
2023-09-11T06:33:39.832Z,12.92
2023-09-11T06:36:08.659Z,13.03
2023-09-11T06:38:37.220Z,13.12
2023-09-11T06:41:07.126Z,13.26
2023-09-11T06:43:35.537Z,13.31
2023-09-11T06:46:04.710Z,13.36
2023-09-11T06:48:34.665Z,13.42
2023-09-11T06:51:05.271Z,13.64
2023-09-11T06:53:34.101Z,13.72
2023-09-11T06:56:02.527Z,13.78
2023-09-11T06:58:31.923Z,13.82
2023-09-11T07:01:00.647Z,13.89
2023-09-11T07:03:29.312Z,13.97
2023-09-11T07:05:59.604Z,14.10
2023-09-11T07:08:28.643Z,14.27
2023-09-11T07:10:57.751Z,14.42
2023-09-11T07:13:26.336Z,14.49
2023-09-11T07:15:58.615Z,14.50
2023-09-11T07:18:28.062Z,14.75
2023-09-11T07:20:56.982Z,14.81
2023-09-11T07:23:29.416Z,14.95
2023-09-11T07:25:59.098Z,14.96
2023-09-11T07:28:28.769Z,15.03
2023-09-11T07:30:57.671Z,15.15
2023-09-11T07:33:26.455Z,15.19
2023-09-11T07:35:55.367Z,15.34
2023-09-11T07:38:24.079Z,15.46
2023-09-11T07:40:54.125Z,15.53
2023-09-11T07:43:23.569Z,15.62
2023-09-11T07:45:52.298Z,15.68
2023-09-11T07:48:21.055Z,15.84
2023-09-11T07:50:58.564Z,15.89
2023-09-11T07:53:28.333Z,15.97
2023-09-11T07:55:58.755Z,16.11
2023-09-11T07:58:27.643Z,16.27
2023-09-11T08:00:56.554Z,16.40
2023-09-11T08:03:25.673Z,16.35
2023-09-11T08:05:54.706Z,16.38
2023-09-11T08:08:23.315Z,16.62
2023-09-11T08:10:56.290Z,16.62
2023-09-11T08:13:28.553Z,16.57
2023-09-11T08:15:57.141Z,16.64
2023-09-11T08:18:25.736Z,16.72
2023-09-11T08:20:54.571Z,16.76
2023-09-11T08:23:23.837Z,16.93
2023-09-11T08:25:52.274Z,17.03
2023-09-11T08:28:21.647Z,17.09
2023-09-11T08:30:52.067Z,17.16
2023-09-11T08:33:20.808Z,17.17
2023-09-11T08:35:50.032Z,17.26
2023-09-11T08:38:18.692Z,17.28
2023-09-11T08:40:47.842Z,17.29
2023-09-11T08:43:16.787Z,17.40
2023-09-11T08:45:45.627Z,17.46
2023-09-11T08:48:17.538Z,17.57
2023-09-11T08:50:51.707Z,17.79
2023-09-11T08:53:21.344Z,17.76
2023-09-11T08:55:52.142Z,17.87
2023-09-11T08:58:24.546Z,18.23
2023-09-11T09:00:56.025Z,18.37
2023-09-11T09:03:28.117Z,18.15
2023-09-11T09:05:59.410Z,18.42
2023-09-11T09:08:28.834Z,18.59
2023-09-11T09:10:57.541Z,18.58
2023-09-11T09:13:28.801Z,18.41
2023-09-11T09:15:57.548Z,18.43
2023-09-11T09:18:27.802Z,18.59
2023-09-11T09:20:57.236Z,18.49
2023-09-11T09:23:34.411Z,18.62
2023-09-11T09:26:08.069Z,18.62
2023-09-11T09:28:37.614Z,18.33
2023-09-11T09:31:06.855Z,18.44
2023-09-11T09:33:37.433Z,18.73
2023-09-11T09:36:06.425Z,18.63
2023-09-11T09:38:35.613Z,18.81
2023-09-11T09:41:11.640Z,18.70
2023-09-11T09:43:40.816Z,18.90
2023-09-11T09:46:22.493Z,18.80
2023-09-11T09:48:55.301Z,18.95
2023-09-11T09:51:24.372Z,19.13
2023-09-11T09:53:56.334Z,18.58
2023-09-11T09:56:25.190Z,18.79
2023-09-11T09:58:55.644Z,19.04
2023-09-11T10:01:25.398Z,18.72
2023-09-11T10:03:56.712Z,18.92
2023-09-11T10:06:28.152Z,18.62
2023-09-11T10:09:08.883Z,18.99
2023-09-11T10:11:38.968Z,18.76
2023-09-11T10:14:09.123Z,18.79
2023-09-11T10:16:38.183Z,18.84
2023-09-11T10:19:08.483Z,18.87
2023-09-11T10:21:37.781Z,18.88
2023-09-11T10:24:07.516Z,19.20
2023-09-11T10:26:39.478Z,19.15
2023-09-11T10:29:10.501Z,19.18
2023-09-11T10:31:44.774Z,19.47
2023-09-11T10:34:14.898Z,19.51
2023-09-11T10:36:54.852Z,19.48
2023-09-11T10:39:24.694Z,19.17
2023-09-11T10:41:53.436Z,19.20
2023-09-11T10:44:22.041Z,19.61
2023-09-11T10:46:52.381Z,19.43
2023-09-11T10:49:24.362Z,19.59
2023-09-11T10:51:53.521Z,19.45
2023-09-11T10:54:23.509Z,19.80
2023-09-11T10:56:53.460Z,19.76
2023-09-11T10:59:24.683Z,19.53
2023-09-11T11:01:53.944Z,19.47
2023-09-11T11:04:26.412Z,19.56
2023-09-11T11:06:56.878Z,19.50
2023-09-11T11:09:32.984Z,19.17
2023-09-11T11:12:05.268Z,18.98
2023-09-11T11:14:35.460Z,18.88
2023-09-11T11:17:10.399Z,19.02
2023-09-11T11:19:42.358Z,18.80
2023-09-11T11:22:11.428Z,18.94
2023-09-11T11:24:53.695Z,18.91
2023-09-11T11:27:22.307Z,18.98
2023-09-11T11:29:50.821Z,19.15
2023-09-11T11:32:20.686Z,19.16
2023-09-11T11:34:51.792Z,19.12
2023-09-11T11:37:22.646Z,19.30
2023-09-11T11:39:51.796Z,19.38
2023-09-11T11:42:23.415Z,19.50
2023-09-11T11:44:52.218Z,19.62
2023-09-11T11:47:21.687Z,19.84
2023-09-11T11:49:57.335Z,19.86
2023-09-11T11:52:28.956Z,19.86
2023-09-11T11:55:03.899Z,19.98
2023-09-11T11:57:35.629Z,19.70
2023-09-11T12:00:15.396Z,19.72
2023-09-11T12:02:47.235Z,19.97
2023-09-11T12:05:18.234Z,19.88
2023-09-11T12:07:46.996Z,19.82
2023-09-11T12:10:20.810Z,19.97
2023-09-11T12:12:49.407Z,20.05
2023-09-11T12:18:39.297Z,19.85
2023-09-11T12:21:09.988Z,19.82
2023-09-11T12:23:38.960Z,19.64
2023-09-11T12:26:09.127Z,19.35
2023-09-11T12:28:38.558Z,19.31
2023-09-11T12:31:07.174Z,19.21
2023-09-11T12:33:36.965Z,19.26
2023-09-11T12:36:06.068Z,19.31
2023-09-11T12:38:36.594Z,19.37
2023-09-11T12:41:06.507Z,19.23
2023-09-11T12:43:35.249Z,19.12
2023-09-11T12:46:05.133Z,18.93
2023-09-11T12:48:34.639Z,18.81
2023-09-11T12:51:07.337Z,18.88
2023-09-11T12:53:38.787Z,18.76
2023-09-11T12:56:09.986Z,18.79
2023-09-11T12:58:40.770Z,18.81
2023-09-11T13:01:14.023Z,18.78
2023-09-11T13:03:47.406Z,18.71
2023-09-11T13:06:16.330Z,18.67
2023-09-11T13:08:46.725Z,18.59
2023-09-11T13:11:15.838Z,18.72
2023-09-11T13:13:44.754Z,18.50
2023-09-11T13:16:15.034Z,18.45
2023-09-11T13:18:43.580Z,18.34
2023-09-11T13:21:12.273Z,18.18
2023-09-11T13:23:42.858Z,18.15
2023-09-11T13:26:13.688Z,18.18
2023-09-11T13:28:42.166Z,18.08
2023-09-11T13:31:10.766Z,18.00
2023-09-11T13:33:39.722Z,17.99
2023-09-11T13:36:08.916Z,17.94
2023-09-11T13:38:37.855Z,18.07
2023-09-11T13:41:07.124Z,18.07
2023-09-11T13:43:37.198Z,18.19
2023-09-11T13:46:06.958Z,18.17
2023-09-11T13:48:35.707Z,18.17
2023-09-11T13:51:05.048Z,18.12
2023-09-11T13:53:33.701Z,18.12
2023-09-11T13:56:02.680Z,18.21
2023-09-11T13:58:31.184Z,18.43
2023-09-11T14:01:01.356Z,18.49
2023-09-11T14:03:30.522Z,18.35
2023-09-11T14:06:01.856Z,18.23
2023-09-11T14:08:30.665Z,18.34
2023-09-11T14:10:59.324Z,18.39
2023-09-11T14:13:28.031Z,18.45
2023-09-11T14:15:57.075Z,18.52
2023-09-11T14:18:30.126Z,18.53
2023-09-11T14:20:58.836Z,18.58
2023-09-11T14:23:27.609Z,18.63
2023-09-11T14:25:57.542Z,18.59
2023-09-11T14:28:26.368Z,18.57
2023-09-11T14:30:55.239Z,18.57
2023-09-11T14:33:23.985Z,18.44
2023-09-11T14:35:54.022Z,18.47
2023-09-11T14:38:28.254Z,18.41
2023-09-11T14:40:57.414Z,18.41
2023-09-11T14:43:26.080Z,18.35
2023-09-11T14:45:54.675Z,18.30
2023-09-11T14:48:23.442Z,18.30
2023-09-11T14:50:53.535Z,18.11
2023-09-11T14:53:22.405Z,17.91
2023-09-11T14:55:51.272Z,17.65
2023-09-11T14:58:19.847Z,17.53
2023-09-11T15:00:48.688Z,17.35
2023-09-11T15:03:17.288Z,17.26
2023-09-11T15:05:46.138Z,17.16
2023-09-11T15:08:16.476Z,17.00
2023-09-11T15:10:47.387Z,16.95
2023-09-11T15:13:16.478Z,16.89
2023-09-11T15:15:45.594Z,16.76
2023-09-11T15:18:14.638Z,16.71
2023-09-11T15:20:46.108Z,16.66
2023-09-11T15:23:16.791Z,16.58
2023-09-11T15:25:45.638Z,16.53
2023-09-11T15:28:14.389Z,16.44
2023-09-11T15:30:43.304Z,16.36
2023-09-11T15:33:13.410Z,16.22
2023-09-11T15:36:03.937Z,16.13
2023-09-11T15:38:37.491Z,16.06
2023-09-11T15:41:06.612Z,15.90
2023-09-11T15:43:36.612Z,15.94
2023-09-11T15:46:06.247Z,15.94
2023-09-11T15:48:38.337Z,15.95
2023-09-11T15:51:07.933Z,15.87
2023-09-11T15:53:39.859Z,15.75
2023-09-11T15:56:08.622Z,15.60
2023-09-11T15:58:37.211Z,15.48
2023-09-11T16:01:06.324Z,15.41
2023-09-11T16:03:35.037Z,15.40
2023-09-11T16:06:05.618Z,15.41
2023-09-11T16:08:34.178Z,15.18
2023-09-11T16:11:04.491Z,15.10
2023-09-11T16:13:34.003Z,15.04
2023-09-11T16:16:02.876Z,15.06
2023-09-11T16:18:31.800Z,14.96
2023-09-11T16:21:00.535Z,14.86
2023-09-11T16:23:31.765Z,15.02
2023-09-11T16:26:00.521Z,15.07
2023-09-11T16:28:33.125Z,14.96
2023-09-11T16:31:01.932Z,14.93
2023-09-11T16:33:30.586Z,14.99
2023-09-11T16:35:59.432Z,14.94
2023-09-11T16:38:27.973Z,14.77
2023-09-11T16:40:56.606Z,14.72
2023-09-11T16:43:25.761Z,14.65
2023-09-11T16:45:55.663Z,14.55
2023-09-11T16:48:24.260Z,14.47
2023-09-11T16:50:53.219Z,14.33
2023-09-11T16:53:21.627Z,14.28
2023-09-11T16:55:50.708Z,14.19
2023-09-11T16:58:19.303Z,14.08
2023-09-11T17:00:48.131Z,13.98
2023-09-11T17:03:18.411Z,13.97
2023-09-11T17:05:47.555Z,13.87
2023-09-11T17:08:16.665Z,13.81
2023-09-11T17:10:45.408Z,13.74
2023-09-11T17:13:14.149Z,13.74
2023-09-11T17:15:42.614Z,13.74
2023-09-11T17:18:11.200Z,13.75
2023-09-11T17:20:43.064Z,13.65
2023-09-11T17:23:13.205Z,13.59
2023-09-11T17:25:44.965Z,13.54
2023-09-11T17:28:13.630Z,13.51
2023-09-11T17:30:42.479Z,13.43
2023-09-11T17:33:11.670Z,13.55
2023-09-11T17:35:40.613Z,13.42
2023-09-11T17:38:10.723Z,13.36
2023-09-11T17:40:39.595Z,13.36
2023-09-11T17:43:08.307Z,13.35
2023-09-11T17:45:38.143Z,13.37
2023-09-11T17:48:07.297Z,13.51
2023-09-11T17:50:35.928Z,13.27
2023-09-11T17:53:04.659Z,13.26
2023-09-11T17:55:34.883Z,13.25
2023-09-11T17:58:04.172Z,13.16
2023-09-11T18:00:32.731Z,13.14
2023-09-11T18:03:01.739Z,13.14
2023-09-11T18:05:30.708Z,13.15
2023-09-11T18:07:59.466Z,13.00
2023-09-11T18:10:28.337Z,13.02
2023-09-11T18:12:59.036Z,13.00
2023-09-11T18:15:27.976Z,13.15
2023-09-11T18:17:57.020Z,12.99
2023-09-11T18:20:25.683Z,12.94
2023-09-11T18:22:54.175Z,12.89
2023-09-11T18:25:23.350Z,12.78
2023-09-11T18:27:51.801Z,12.74
2023-09-11T18:30:22.009Z,12.73
2023-09-11T18:32:50.828Z,12.66
2023-09-11T18:35:19.322Z,12.61
2023-09-11T18:37:50.632Z,12.57
2023-09-11T18:40:19.952Z,12.54
2023-09-11T18:42:48.524Z,12.50
2023-09-11T18:45:17.954Z,12.60
2023-09-11T18:47:49.182Z,12.58
2023-09-11T18:50:18.952Z,12.41
2023-09-11T18:52:47.945Z,12.49
2023-09-11T18:55:17.080Z,12.39
2023-09-11T18:57:45.703Z,12.43
2023-09-11T19:00:16.503Z,12.36
2023-09-11T19:02:45.559Z,12.29
2023-09-11T19:05:15.655Z,12.29
2023-09-11T19:07:44.574Z,12.31
2023-09-11T19:10:13.780Z,12.37
2023-09-11T19:12:44.018Z,12.36
2023-09-11T19:15:13.875Z,12.20
2023-09-11T19:17:42.826Z,12.18
2023-09-11T19:20:12.129Z,12.23
2023-09-11T19:22:42.217Z,12.24
2023-09-11T19:25:11.935Z,12.12
2023-09-11T19:27:41.292Z,12.18
2023-09-11T19:30:11.669Z,12.08
2023-09-11T19:32:41.307Z,12.15
2023-09-11T19:35:10.429Z,12.05
2023-09-11T19:37:38.922Z,12.04
2023-09-11T19:40:11.768Z,12.02
2023-09-11T19:42:40.468Z,11.98
2023-09-11T19:45:09.809Z,11.95
2023-09-11T19:47:38.573Z,11.92
2023-09-11T19:50:08.350Z,11.90
2023-09-11T19:52:37.053Z,11.79
2023-09-11T19:55:06.057Z,11.85
2023-09-11T19:57:37.526Z,11.79
2023-09-11T20:00:08.109Z,11.88
2023-09-11T20:02:39.711Z,11.85
2023-09-11T20:05:09.261Z,11.85
2023-09-11T20:07:37.820Z,11.81
2023-09-11T20:10:07.307Z,11.78
2023-09-11T20:12:38.633Z,11.77
2023-09-11T20:15:08.928Z,11.77
2023-09-11T20:17:38.780Z,11.69
2023-09-11T20:20:08.822Z,11.69
2023-09-11T20:22:37.719Z,11.68
2023-09-11T20:25:06.875Z,11.68
2023-09-11T20:27:37.113Z,11.61
2023-09-11T20:30:06.420Z,11.58
2023-09-11T20:32:35.287Z,11.57
2023-09-11T20:35:04.402Z,11.61
2023-09-11T20:37:35.373Z,11.60
2023-09-11T20:40:04.573Z,11.51
2023-09-11T20:42:34.446Z,11.52
2023-09-11T20:45:04.679Z,11.65
2023-09-11T20:47:33.851Z,11.69
2023-09-11T20:50:02.704Z,11.70
2023-09-11T20:52:33.144Z,11.59
2023-09-11T20:55:05.254Z,11.58
2023-09-11T20:57:34.912Z,11.71
2023-09-11T21:00:05.494Z,11.70
2023-09-11T21:02:37.146Z,11.63
2023-09-11T21:05:09.564Z,11.62
2023-09-11T21:07:41.133Z,11.62
2023-09-11T21:10:10.734Z,11.60
2023-09-11T21:12:51.697Z,11.67
2023-09-11T21:15:22.504Z,11.80
2023-09-11T21:17:52.310Z,11.81
2023-09-11T21:20:21.588Z,11.75
2023-09-11T21:22:50.473Z,11.79
2023-09-11T21:25:20.799Z,11.84
2023-09-11T21:27:51.237Z,11.90
2023-09-11T21:30:21.827Z,11.84
2023-09-11T21:32:51.046Z,11.73
2023-09-11T21:35:20.153Z,11.68
2023-09-11T21:37:49.253Z,11.65
2023-09-11T21:40:20.856Z,11.59
2023-09-11T21:42:51.679Z,11.56
2023-09-11T21:45:22.110Z,11.53
2023-09-11T21:47:51.291Z,11.51
2023-09-11T21:50:19.963Z,11.44
2023-09-11T21:52:48.898Z,11.40
2023-09-11T21:55:18.432Z,11.36
2023-09-11T21:57:47.788Z,11.24
2023-09-11T22:00:17.306Z,11.29
2023-09-11T22:02:49.365Z,11.18
2023-09-11T22:05:19.530Z,11.14
2023-09-11T22:07:48.216Z,11.10
2023-09-11T22:10:16.964Z,10.96
2023-09-11T22:12:47.639Z,11.06
2023-09-11T22:15:16.721Z,11.07
2023-09-11T22:17:45.469Z,11.06
2023-09-11T22:20:16.408Z,10.86
2023-09-11T22:22:45.535Z,10.81
2023-09-11T22:25:14.289Z,10.91
2023-09-11T22:27:43.848Z,10.87
2023-09-11T22:30:13.187Z,10.94
2023-09-11T22:32:53.617Z,10.94
2023-09-11T22:35:30.574Z,10.79
2023-09-11T22:38:04.367Z,10.75
2023-09-11T22:40:35.238Z,10.79
2023-09-11T22:43:06.096Z,10.75
2023-09-11T22:45:34.951Z,10.74
2023-09-11T22:48:06.786Z,10.71
2023-09-11T22:50:39.821Z,10.75
2023-09-11T22:53:10.614Z,10.76
2023-09-11T22:55:39.476Z,10.58
2023-09-11T22:58:08.842Z,10.40
2023-09-11T23:00:40.922Z,10.35
2023-09-11T23:03:10.955Z,10.30
2023-09-11T23:05:42.623Z,10.16
2023-09-11T23:08:11.435Z,10.19
2023-09-11T23:10:40.249Z,10.04
2023-09-11T23:13:08.793Z,10.10
2023-09-11T23:15:37.749Z,10.05
2023-09-11T23:18:07.227Z,9.95
2023-09-11T23:20:35.771Z,9.85
2023-09-11T23:23:06.238Z,9.87
2023-09-11T23:25:36.414Z,9.85
2023-09-11T23:28:05.854Z,9.85
2023-09-11T23:30:34.736Z,9.88
2023-09-11T23:33:03.427Z,9.80
2023-09-11T23:35:32.371Z,9.75
2023-09-11T23:38:01.373Z,9.70
2023-09-11T23:40:31.906Z,9.65
2023-09-11T23:43:02.148Z,9.75
2023-09-11T23:45:30.806Z,9.80
2023-09-11T23:47:59.541Z,9.74
2023-09-11T23:50:28.251Z,9.69
2023-09-11T23:52:57.376Z,9.56
2023-09-11T23:55:26.400Z,9.52
2023-09-11T23:57:56.336Z,9.44
